sensor_id;sensor_type;location;lat;lon;timestamp;temperature;humidity
26224;DHT22;14820;48.682;8.890;2022-12-18T00:02:03;-11.00;99.90
26224;DHT22;14820;48.682;8.890;2022-12-18T00:04:29;-11.10;99.90
26224;DHT22;14820;48.682;8.890;2022-12-18T00:06:55;-11.10;99.90
26224;DHT22;14820;48.682;8.890;2022-12-18T00:09:21;-11.10;99.90
26224;DHT22;14820;48.682;8.890;2022-12-18T00:11:46;-11.10;99.90
26224;DHT22;14820;48.682;8.890;2022-12-18T00:14:13;-11.00;99.90
26224;DHT22;14820;48.682;8.890;2022-12-18T00:16:39;-10.90;99.90
26224;DHT22;14820;48.682;8.890;2022-12-18T00:19:05;-11.00;99.90
26224;DHT22;14820;48.682;8.890;2022-12-18T00:21:33;-11.10;99.90
26224;DHT22;14820;48.682;8.890;2022-12-18T00:23:59;-11.10;99.90
26224;DHT22;14820;48.682;8.890;2022-12-18T00:26:28;-11.20;99.90
26224;DHT22;14820;48.682;8.890;2022-12-18T00:28:54;-11.20;99.90
26224;DHT22;14820;48.682;8.890;2022-12-18T00:31:24;-11.20;99.90
26224;DHT22;14820;48.682;8.890;2022-12-18T00:33:50;-11.20;99.90
26224;DHT22;14820;48.682;8.890;2022-12-18T00:36:22;-11.20;99.90
26224;DHT22;14820;48.682;8.890;2022-12-18T00:38:49;-11.10;99.90
26224;DHT22;14820;48.682;8.890;2022-12-18T00:41:16;-11.10;99.90
26224;DHT22;14820;48.682;8.890;2022-12-18T00:44:05;-11.10;99.90
26224;DHT22;14820;48.682;8.890;2022-12-18T00:46:31;-11.20;99.90
26224;DHT22;14820;48.682;8.890;2022-12-18T00:48:57;-11.20;99.90
26224;DHT22;14820;48.682;8.890;2022-12-18T00:51:23;-11.20;99.90
26224;DHT22;14820;48.682;8.890;2022-12-18T00:53:49;-11.30;99.90
26224;DHT22;14820;48.682;8.890;2022-12-18T00:56:14;-11.30;99.90
26224;DHT22;14820;48.682;8.890;2022-12-18T00:58:40;-11.30;99.90
26224;DHT22;14820;48.682;8.890;2022-12-18T01:01:06;-11.30;99.90
26224;DHT22;14820;48.682;8.890;2022-12-18T01:03:32;-11.30;99.90
26224;DHT22;14820;48.682;8.890;2022-12-18T01:05:57;-11.40;99.90
26224;DHT22;14820;48.682;8.890;2022-12-18T01:08:23;-11.40;99.90
26224;DHT22;14820;48.682;8.890;2022-12-18T01:10:49;-11.40;99.90
26224;DHT22;14820;48.682;8.890;2022-12-18T01:13:18;-11.30;99.90
26224;DHT22;14820;48.682;8.890;2022-12-18T01:15:50;-11.30;99.90
26224;DHT22;14820;48.682;8.890;2022-12-18T01:18:16;-11.40;99.90
26224;DHT22;14820;48.682;8.890;2022-12-18T01:20:42;-11.40;99.90
26224;DHT22;14820;48.682;8.890;2022-12-18T01:23:08;-11.50;99.90
26224;DHT22;14820;48.682;8.890;2022-12-18T01:25:36;-11.50;99.90
26224;DHT22;14820;48.682;8.890;2022-12-18T01:28:02;-11.50;99.90
26224;DHT22;14820;48.682;8.890;2022-12-18T01:30:28;-11.50;99.90
26224;DHT22;14820;48.682;8.890;2022-12-18T01:32:53;-11.40;99.90
26224;DHT22;14820;48.682;8.890;2022-12-18T01:35:19;-11.30;99.90
26224;DHT22;14820;48.682;8.890;2022-12-18T01:37:45;-11.30;99.90
26224;DHT22;14820;48.682;8.890;2022-12-18T01:40:11;-11.20;99.90
26224;DHT22;14820;48.682;8.890;2022-12-18T01:42:36;-11.20;99.90
26224;DHT22;14820;48.682;8.890;2022-12-18T01:47:47;-11.30;99.90
26224;DHT22;14820;48.682;8.890;2022-12-18T01:50:17;-11.40;99.90
26224;DHT22;14820;48.682;8.890;2022-12-18T01:52:49;-11.40;99.90
26224;DHT22;14820;48.682;8.890;2022-12-18T01:55:19;-11.30;99.90
26224;DHT22;14820;48.682;8.890;2022-12-18T01:57:47;-11.30;99.90
26224;DHT22;14820;48.682;8.890;2022-12-18T02:00:17;-11.20;99.90
26224;DHT22;14820;48.682;8.890;2022-12-18T02:02:44;-11.00;99.90
26224;DHT22;14820;48.682;8.890;2022-12-18T02:05:11;-11.20;99.90
26224;DHT22;14820;48.682;8.890;2022-12-18T02:10:22;-11.10;99.90
26224;DHT22;14820;48.682;8.890;2022-12-18T02:13:13;-11.20;99.90
26224;DHT22;14820;48.682;8.890;2022-12-18T02:18:32;-11.10;99.90
26224;DHT22;14820;48.682;8.890;2022-12-18T02:23:53;-11.10;99.90
26224;DHT22;14820;48.682;8.890;2022-12-18T02:26:29;-11.00;99.90
26224;DHT22;14820;48.682;8.890;2022-12-18T02:29:00;-11.00;99.90
26224;DHT22;14820;48.682;8.890;2022-12-18T02:31:31;-11.00;99.90
26224;DHT22;14820;48.682;8.890;2022-12-18T02:34:02;-10.90;99.90
26224;DHT22;14820;48.682;8.890;2022-12-18T02:36:29;-10.90;99.90
26224;DHT22;14820;48.682;8.890;2022-12-18T02:38:56;-10.80;99.90
26224;DHT22;14820;48.682;8.890;2022-12-18T02:41:25;-10.80;99.90
26224;DHT22;14820;48.682;8.890;2022-12-18T02:44:00;-10.80;99.90
26224;DHT22;14820;48.682;8.890;2022-12-18T02:46:33;-10.70;99.90
26224;DHT22;14820;48.682;8.890;2022-12-18T02:49:53;-10.70;99.90
26224;DHT22;14820;48.682;8.890;2022-12-18T02:55:18;-10.70;99.90
26224;DHT22;14820;48.682;8.890;2022-12-18T02:58:03;-10.80;99.90
26224;DHT22;14820;48.682;8.890;2022-12-18T03:00:50;-10.70;99.90
26224;DHT22;14820;48.682;8.890;2022-12-18T03:03:31;-10.60;99.90
26224;DHT22;14820;48.682;8.890;2022-12-18T03:06:04;-10.60;99.90
26224;DHT22;14820;48.682;8.890;2022-12-18T03:08:38;-10.50;99.90
26224;DHT22;14820;48.682;8.890;2022-12-18T03:11:10;-10.40;99.90
26224;DHT22;14820;48.682;8.890;2022-12-18T03:13:46;-10.40;99.90
26224;DHT22;14820;48.682;8.890;2022-12-18T03:16:22;-10.30;99.90
26224;DHT22;14820;48.682;8.890;2022-12-18T03:19:02;-10.30;99.90
26224;DHT22;14820;48.682;8.890;2022-12-18T03:21:40;-10.30;99.90
26224;DHT22;14820;48.682;8.890;2022-12-18T03:24:08;-10.20;99.90
26224;DHT22;14820;48.682;8.890;2022-12-18T03:26:35;-10.20;99.90
26224;DHT22;14820;48.682;8.890;2022-12-18T03:29:17;-10.20;99.90
26224;DHT22;14820;48.682;8.890;2022-12-18T03:31:54;-10.10;99.90
26224;DHT22;14820;48.682;8.890;2022-12-18T03:34:32;-10.20;99.90
26224;DHT22;14820;48.682;8.890;2022-12-18T03:36:59;-10.20;99.90
26224;DHT22;14820;48.682;8.890;2022-12-18T03:39:27;-10.10;99.90
26224;DHT22;14820;48.682;8.890;2022-12-18T03:44:26;-10.20;99.90
26224;DHT22;14820;48.682;8.890;2022-12-18T03:47:16;-10.20;99.90
26224;DHT22;14820;48.682;8.890;2022-12-18T03:52:40;-10.20;99.90
26224;DHT22;14820;48.682;8.890;2022-12-18T03:55:09;-10.20;99.90
26224;DHT22;14820;48.682;8.890;2022-12-18T03:57:37;-10.20;99.90
26224;DHT22;14820;48.682;8.890;2022-12-18T04:00:12;-10.20;99.90
26224;DHT22;14820;48.682;8.890;2022-12-18T04:02:43;-10.30;99.90
26224;DHT22;14820;48.682;8.890;2022-12-18T04:05:13;-10.30;99.90
26224;DHT22;14820;48.682;8.890;2022-12-18T04:07:40;-10.30;99.90
26224;DHT22;14820;48.682;8.890;2022-12-18T04:10:07;-10.20;99.90
26224;DHT22;14820;48.682;8.890;2022-12-18T04:12:33;-10.20;99.90
26224;DHT22;14820;48.682;8.890;2022-12-18T04:14:58;-10.20;99.90
26224;DHT22;14820;48.682;8.890;2022-12-18T04:17:24;-10.20;99.90
26224;DHT22;14820;48.682;8.890;2022-12-18T04:19:50;-10.30;99.90
26224;DHT22;14820;48.682;8.890;2022-12-18T04:22:16;-10.30;99.90
26224;DHT22;14820;48.682;8.890;2022-12-18T04:24:41;-10.50;99.90
26224;DHT22;14820;48.682;8.890;2022-12-18T04:27:07;-10.60;99.90
26224;DHT22;14820;48.682;8.890;2022-12-18T04:29:33;-10.70;99.90
26224;DHT22;14820;48.682;8.890;2022-12-18T04:31:58;-10.50;99.90
26224;DHT22;14820;48.682;8.890;2022-12-18T04:34:27;-10.40;99.90
26224;DHT22;14820;48.682;8.890;2022-12-18T04:36:53;-10.20;99.90
26224;DHT22;14820;48.682;8.890;2022-12-18T04:39:18;-10.10;99.90
26224;DHT22;14820;48.682;8.890;2022-12-18T04:41:44;-10.10;99.90
26224;DHT22;14820;48.682;8.890;2022-12-18T04:44:10;-10.20;99.90
26224;DHT22;14820;48.682;8.890;2022-12-18T04:46:35;-10.20;99.90
26224;DHT22;14820;48.682;8.890;2022-12-18T04:49:01;-10.10;99.90
26224;DHT22;14820;48.682;8.890;2022-12-18T04:51:27;-10.10;99.90
26224;DHT22;14820;48.682;8.890;2022-12-18T04:53:53;-9.90;99.90
26224;DHT22;14820;48.682;8.890;2022-12-18T04:56:18;-9.80;99.90
26224;DHT22;14820;48.682;8.890;2022-12-18T04:58:44;-9.80;99.90
26224;DHT22;14820;48.682;8.890;2022-12-18T05:01:11;-9.80;99.90
26224;DHT22;14820;48.682;8.890;2022-12-18T05:03:38;-9.90;99.90
26224;DHT22;14820;48.682;8.890;2022-12-18T05:06:05;-9.90;99.90
26224;DHT22;14820;48.682;8.890;2022-12-18T05:08:31;-10.00;99.90
26224;DHT22;14820;48.682;8.890;2022-12-18T05:11:11;-9.90;99.90
26224;DHT22;14820;48.682;8.890;2022-12-18T05:13:40;-9.90;99.90
26224;DHT22;14820;48.682;8.890;2022-12-18T05:16:06;-9.90;99.90
26224;DHT22;14820;48.682;8.890;2022-12-18T05:18:32;-9.90;99.90
26224;DHT22;14820;48.682;8.890;2022-12-18T05:20:58;-9.80;99.90
26224;DHT22;14820;48.682;8.890;2022-12-18T05:23:24;-9.70;99.90
26224;DHT22;14820;48.682;8.890;2022-12-18T05:25:55;-9.70;99.90
26224;DHT22;14820;48.682;8.890;2022-12-18T05:28:21;-9.60;99.90
26224;DHT22;14820;48.682;8.890;2022-12-18T05:30:59;-9.50;99.90
26224;DHT22;14820;48.682;8.890;2022-12-18T05:33:26;-9.50;99.90
26224;DHT22;14820;48.682;8.890;2022-12-18T05:36:00;-9.40;99.90
26224;DHT22;14820;48.682;8.890;2022-12-18T05:38:27;-9.40;99.90
26224;DHT22;14820;48.682;8.890;2022-12-18T05:40:53;-9.40;99.90
26224;DHT22;14820;48.682;8.890;2022-12-18T05:43:20;-9.50;99.90
26224;DHT22;14820;48.682;8.890;2022-12-18T05:45:48;-9.50;99.90
26224;DHT22;14820;48.682;8.890;2022-12-18T05:48:14;-9.50;99.90
26224;DHT22;14820;48.682;8.890;2022-12-18T05:50:43;-9.40;99.90
26224;DHT22;14820;48.682;8.890;2022-12-18T05:53:12;-9.40;99.90
26224;DHT22;14820;48.682;8.890;2022-12-18T05:55:39;-9.40;99.90
26224;DHT22;14820;48.682;8.890;2022-12-18T05:58:07;-9.40;99.90
26224;DHT22;14820;48.682;8.890;2022-12-18T06:00:34;-9.30;99.90
26224;DHT22;14820;48.682;8.890;2022-12-18T06:03:01;-9.30;99.90
26224;DHT22;14820;48.682;8.890;2022-12-18T06:05:27;-9.30;99.90
26224;DHT22;14820;48.682;8.890;2022-12-18T06:07:53;-9.30;99.90
26224;DHT22;14820;48.682;8.890;2022-12-18T06:10:18;-9.40;99.90
26224;DHT22;14820;48.682;8.890;2022-12-18T06:12:44;-9.50;99.90
26224;DHT22;14820;48.682;8.890;2022-12-18T06:15:10;-9.60;99.90
26224;DHT22;14820;48.682;8.890;2022-12-18T06:17:36;-9.60;99.90
26224;DHT22;14820;48.682;8.890;2022-12-18T06:20:02;-9.60;99.90
26224;DHT22;14820;48.682;8.890;2022-12-18T06:22:28;-9.70;99.90
26224;DHT22;14820;48.682;8.890;2022-12-18T06:24:55;-9.80;99.90
26224;DHT22;14820;48.682;8.890;2022-12-18T06:27:21;-9.90;99.90
26224;DHT22;14820;48.682;8.890;2022-12-18T06:29:46;-10.00;99.90
26224;DHT22;14820;48.682;8.890;2022-12-18T06:32:13;-10.00;99.90
26224;DHT22;14820;48.682;8.890;2022-12-18T06:34:38;-10.00;99.90
26224;DHT22;14820;48.682;8.890;2022-12-18T06:37:04;-10.00;99.90
26224;DHT22;14820;48.682;8.890;2022-12-18T06:39:30;-10.00;99.90
26224;DHT22;14820;48.682;8.890;2022-12-18T06:41:55;-10.00;99.90
26224;DHT22;14820;48.682;8.890;2022-12-18T06:44:21;-10.10;99.90
26224;DHT22;14820;48.682;8.890;2022-12-18T06:46:47;-10.10;99.90
26224;DHT22;14820;48.682;8.890;2022-12-18T06:49:12;-10.10;99.90
26224;DHT22;14820;48.682;8.890;2022-12-18T06:51:38;-10.20;99.90
26224;DHT22;14820;48.682;8.890;2022-12-18T06:54:04;-10.20;99.90
26224;DHT22;14820;48.682;8.890;2022-12-18T06:56:30;-10.10;99.90
26224;DHT22;14820;48.682;8.890;2022-12-18T06:58:56;-10.10;99.90
26224;DHT22;14820;48.682;8.890;2022-12-18T07:01:22;-10.10;99.90
26224;DHT22;14820;48.682;8.890;2022-12-18T07:03:55;-10.10;99.90
26224;DHT22;14820;48.682;8.890;2022-12-18T07:06:22;-10.20;99.90
26224;DHT22;14820;48.682;8.890;2022-12-18T07:08:53;-10.20;99.90
26224;DHT22;14820;48.682;8.890;2022-12-18T07:11:19;-10.20;99.90
26224;DHT22;14820;48.682;8.890;2022-12-18T07:13:45;-10.20;99.90
26224;DHT22;14820;48.682;8.890;2022-12-18T07:16:14;-10.20;99.90
26224;DHT22;14820;48.682;8.890;2022-12-18T07:18:40;-10.20;99.90
26224;DHT22;14820;48.682;8.890;2022-12-18T07:21:08;-10.10;99.90
26224;DHT22;14820;48.682;8.890;2022-12-18T07:23:37;-10.10;99.90
26224;DHT22;14820;48.682;8.890;2022-12-18T07:26:11;-10.20;99.90
26224;DHT22;14820;48.682;8.890;2022-12-18T07:28:38;-10.20;99.90
26224;DHT22;14820;48.682;8.890;2022-12-18T07:31:07;-10.20;99.90
26224;DHT22;14820;48.682;8.890;2022-12-18T07:33:33;-10.10;99.90
26224;DHT22;14820;48.682;8.890;2022-12-18T07:36:00;-10.20;99.90
26224;DHT22;14820;48.682;8.890;2022-12-18T07:38:33;-10.20;99.90
26224;DHT22;14820;48.682;8.890;2022-12-18T07:41:04;-10.20;99.90
26224;DHT22;14820;48.682;8.890;2022-12-18T07:43:31;-10.20;99.90
26224;DHT22;14820;48.682;8.890;2022-12-18T07:45:59;-10.20;99.90
26224;DHT22;14820;48.682;8.890;2022-12-18T07:48:25;-10.20;99.90
26224;DHT22;14820;48.682;8.890;2022-12-18T07:50:51;-10.20;99.90
26224;DHT22;14820;48.682;8.890;2022-12-18T07:53:20;-10.10;99.90
26224;DHT22;14820;48.682;8.890;2022-12-18T07:55:47;-10.10;99.90
26224;DHT22;14820;48.682;8.890;2022-12-18T07:58:15;-10.10;99.90
26224;DHT22;14820;48.682;8.890;2022-12-18T08:00:45;-10.10;99.90
26224;DHT22;14820;48.682;8.890;2022-12-18T08:03:13;-10.00;99.90
26224;DHT22;14820;48.682;8.890;2022-12-18T08:05:41;-10.00;99.90
26224;DHT22;14820;48.682;8.890;2022-12-18T08:08:08;-10.00;99.90
26224;DHT22;14820;48.682;8.890;2022-12-18T08:10:34;-10.00;99.90
26224;DHT22;14820;48.682;8.890;2022-12-18T08:13:01;-10.00;99.90
26224;DHT22;14820;48.682;8.890;2022-12-18T08:15:26;-10.00;99.90
26224;DHT22;14820;48.682;8.890;2022-12-18T08:17:56;-9.90;99.90
26224;DHT22;14820;48.682;8.890;2022-12-18T08:20:22;-9.80;99.90
26224;DHT22;14820;48.682;8.890;2022-12-18T08:22:49;-9.70;99.90
26224;DHT22;14820;48.682;8.890;2022-12-18T08:25:15;-9.60;99.90
26224;DHT22;14820;48.682;8.890;2022-12-18T08:27:41;-9.60;99.90
26224;DHT22;14820;48.682;8.890;2022-12-18T08:30:09;-9.60;99.90
26224;DHT22;14820;48.682;8.890;2022-12-18T08:32:36;-9.50;99.90
26224;DHT22;14820;48.682;8.890;2022-12-18T08:35:02;-9.50;99.90
26224;DHT22;14820;48.682;8.890;2022-12-18T08:37:31;-9.40;99.90
26224;DHT22;14820;48.682;8.890;2022-12-18T08:40:01;-9.30;99.90
26224;DHT22;14820;48.682;8.890;2022-12-18T08:42:29;-9.30;99.90
26224;DHT22;14820;48.682;8.890;2022-12-18T08:45:13;-9.10;99.90
26224;DHT22;14820;48.682;8.890;2022-12-18T08:47:39;-9.00;99.90
26224;DHT22;14820;48.682;8.890;2022-12-18T08:50:09;-8.90;99.90
26224;DHT22;14820;48.682;8.890;2022-12-18T08:52:36;-8.70;99.90
26224;DHT22;14820;48.682;8.890;2022-12-18T08:55:03;-8.60;99.90
26224;DHT22;14820;48.682;8.890;2022-12-18T08:57:31;-8.50;99.90
26224;DHT22;14820;48.682;8.890;2022-12-18T08:59:56;-8.40;99.90
26224;DHT22;14820;48.682;8.890;2022-12-18T09:02:25;-8.30;99.90
26224;DHT22;14820;48.682;8.890;2022-12-18T09:04:54;-8.20;99.90
26224;DHT22;14820;48.682;8.890;2022-12-18T09:07:19;-8.10;99.90
26224;DHT22;14820;48.682;8.890;2022-12-18T09:09:45;-7.90;99.90
26224;DHT22;14820;48.682;8.890;2022-12-18T09:12:13;-7.80;99.90
26224;DHT22;14820;48.682;8.890;2022-12-18T09:14:39;-7.60;99.90
26224;DHT22;14820;48.682;8.890;2022-12-18T09:17:06;-7.50;99.90
26224;DHT22;14820;48.682;8.890;2022-12-18T09:19:39;-7.30;99.90
26224;DHT22;14820;48.682;8.890;2022-12-18T09:22:09;-7.20;99.90
26224;DHT22;14820;48.682;8.890;2022-12-18T09:24:35;-7.00;99.90
26224;DHT22;14820;48.682;8.890;2022-12-18T09:27:01;-6.90;99.90
26224;DHT22;14820;48.682;8.890;2022-12-18T09:29:27;-6.80;99.90
26224;DHT22;14820;48.682;8.890;2022-12-18T09:31:53;-6.70;99.90
26224;DHT22;14820;48.682;8.890;2022-12-18T09:34:21;-6.50;99.90
26224;DHT22;14820;48.682;8.890;2022-12-18T09:36:48;-6.40;99.90
26224;DHT22;14820;48.682;8.890;2022-12-18T09:39:20;-6.20;99.90
26224;DHT22;14820;48.682;8.890;2022-12-18T09:41:52;-6.10;99.90
26224;DHT22;14820;48.682;8.890;2022-12-18T09:47:09;-5.90;99.90
26224;DHT22;14820;48.682;8.890;2022-12-18T09:49:42;-5.80;99.90
26224;DHT22;14820;48.682;8.890;2022-12-18T09:52:27;-5.60;99.90
26224;DHT22;14820;48.682;8.890;2022-12-18T09:55:21;-5.50;99.90
26224;DHT22;14820;48.682;8.890;2022-12-18T10:00:40;-5.30;99.90
26224;DHT22;14820;48.682;8.890;2022-12-18T10:03:13;-5.20;99.90
26224;DHT22;14820;48.682;8.890;2022-12-18T10:06:10;-5.10;99.90
26224;DHT22;14820;48.682;8.890;2022-12-18T10:09:01;-5.00;99.90
26224;DHT22;14820;48.682;8.890;2022-12-18T10:12:06;-4.90;99.90
26224;DHT22;14820;48.682;8.890;2022-12-18T10:27:43;-4.10;99.90
26224;DHT22;14820;48.682;8.890;2022-12-18T10:30:26;-4.00;99.90
26224;DHT22;14820;48.682;8.890;2022-12-18T10:32:52;-3.80;99.90
26224;DHT22;14820;48.682;8.890;2022-12-18T10:35:24;-3.60;99.90
26224;DHT22;14820;48.682;8.890;2022-12-18T10:40:52;-3.50;99.90
26224;DHT22;14820;48.682;8.890;2022-12-18T10:43:25;-3.40;99.90
26224;DHT22;14820;48.682;8.890;2022-12-18T10:48:54;-3.30;99.90
26224;DHT22;14820;48.682;8.890;2022-12-18T10:53:58;-3.20;99.90
26224;DHT22;14820;48.682;8.890;2022-12-18T10:56:27;-3.10;99.90
26224;DHT22;14820;48.682;8.890;2022-12-18T10:59:14;-3.00;99.90
26224;DHT22;14820;48.682;8.890;2022-12-18T11:01:58;-3.00;99.90
26224;DHT22;14820;48.682;8.890;2022-12-18T11:04:29;-2.90;99.90
26224;DHT22;14820;48.682;8.890;2022-12-18T11:07:01;-2.80;99.90
26224;DHT22;14820;48.682;8.890;2022-12-18T11:09:59;-2.70;99.90
26224;DHT22;14820;48.682;8.890;2022-12-18T11:12:19;-2.60;99.90
26224;DHT22;14820;48.682;8.890;2022-12-18T11:14:54;-2.60;99.90
26224;DHT22;14820;48.682;8.890;2022-12-18T11:17:30;-2.50;99.90
26224;DHT22;14820;48.682;8.890;2022-12-18T11:19:58;-2.40;99.90
26224;DHT22;14820;48.682;8.890;2022-12-18T11:22:32;-2.30;99.90
26224;DHT22;14820;48.682;8.890;2022-12-18T11:25:00;-2.20;99.90
26224;DHT22;14820;48.682;8.890;2022-12-18T11:27:28;-2.20;99.90
26224;DHT22;14820;48.682;8.890;2022-12-18T11:30:09;-2.10;99.90
26224;DHT22;14820;48.682;8.890;2022-12-18T11:32:40;-2.10;99.90
26224;DHT22;14820;48.682;8.890;2022-12-18T11:38:21;-2.00;99.90
26224;DHT22;14820;48.682;8.890;2022-12-18T11:43:53;-2.00;99.90
26224;DHT22;14820;48.682;8.890;2022-12-18T11:46:27;-2.00;99.90
26224;DHT22;14820;48.682;8.890;2022-12-18T11:49:07;-2.00;99.90
26224;DHT22;14820;48.682;8.890;2022-12-18T11:51:55;-2.00;99.90
26224;DHT22;14820;48.682;8.890;2022-12-18T11:54:24;-2.00;99.90
26224;DHT22;14820;48.682;8.890;2022-12-18T11:57:11;-2.00;99.90
26224;DHT22;14820;48.682;8.890;2022-12-18T12:08:42;-2.10;99.90
26224;DHT22;14820;48.682;8.890;2022-12-18T12:11:48;-2.10;99.90
26224;DHT22;14820;48.682;8.890;2022-12-18T12:20:26;-2.20;99.90
26224;DHT22;14820;48.682;8.890;2022-12-18T12:23:05;-2.30;99.90
26224;DHT22;14820;48.682;8.890;2022-12-18T12:25:44;-2.30;99.90
26224;DHT22;14820;48.682;8.890;2022-12-18T12:30:55;-2.50;99.90
26224;DHT22;14820;48.682;8.890;2022-12-18T12:36:28;-2.50;99.90
26224;DHT22;14820;48.682;8.890;2022-12-18T12:38:59;-2.40;99.90
26224;DHT22;14820;48.682;8.890;2022-12-18T12:41:30;-2.40;99.90
26224;DHT22;14820;48.682;8.890;2022-12-18T12:44:32;-2.40;99.90
26224;DHT22;14820;48.682;8.890;2022-12-18T12:47:11;-2.40;99.90
26224;DHT22;14820;48.682;8.890;2022-12-18T12:49:40;-2.40;99.90
26224;DHT22;14820;48.682;8.890;2022-12-18T12:52:15;-2.30;99.90
26224;DHT22;14820;48.682;8.890;2022-12-18T12:54:42;-2.40;99.90
26224;DHT22;14820;48.682;8.890;2022-12-18T12:57:23;-2.30;99.90
26224;DHT22;14820;48.682;8.890;2022-12-18T13:02:35;-2.30;99.90
26224;DHT22;14820;48.682;8.890;2022-12-18T13:05:30;-2.30;99.90
26224;DHT22;14820;48.682;8.890;2022-12-18T13:08:07;-2.30;99.90
26224;DHT22;14820;48.682;8.890;2022-12-18T13:10:40;-2.20;99.90
26224;DHT22;14820;48.682;8.890;2022-12-18T13:13:10;-2.20;99.90
26224;DHT22;14820;48.682;8.890;2022-12-18T13:16:06;-2.20;99.90
26224;DHT22;14820;48.682;8.890;2022-12-18T13:18:36;-2.20;99.90
26224;DHT22;14820;48.682;8.890;2022-12-18T13:21:18;-2.20;99.90
26224;DHT22;14820;48.682;8.890;2022-12-18T13:23:46;-2.20;99.90
26224;DHT22;14820;48.682;8.890;2022-12-18T13:28:53;-2.20;99.90
26224;DHT22;14820;48.682;8.890;2022-12-18T13:34:29;-2.20;99.90
26224;DHT22;14820;48.682;8.890;2022-12-18T13:37:33;-2.20;99.90
26224;DHT22;14820;48.682;8.890;2022-12-18T13:39:46;-2.20;99.90
26224;DHT22;14820;48.682;8.890;2022-12-18T13:44:57;-2.20;99.90
26224;DHT22;14820;48.682;8.890;2022-12-18T13:47:34;-2.20;99.90
26224;DHT22;14820;48.682;8.890;2022-12-18T13:50:20;-2.20;99.90
26224;DHT22;14820;48.682;8.890;2022-12-18T13:52:52;-2.20;99.90
26224;DHT22;14820;48.682;8.890;2022-12-18T13:55:19;-2.20;99.90
26224;DHT22;14820;48.682;8.890;2022-12-18T13:57:45;-2.20;99.90
26224;DHT22;14820;48.682;8.890;2022-12-18T14:00:28;-2.10;99.90
26224;DHT22;14820;48.682;8.890;2022-12-18T14:02:55;-2.10;99.90
26224;DHT22;14820;48.682;8.890;2022-12-18T14:05:25;-2.10;99.90
26224;DHT22;14820;48.682;8.890;2022-12-18T14:07:52;-2.10;99.90
26224;DHT22;14820;48.682;8.890;2022-12-18T14:10:19;-2.10;99.90
26224;DHT22;14820;48.682;8.890;2022-12-18T14:12:48;-2.10;99.90
26224;DHT22;14820;48.682;8.890;2022-12-18T14:17:55;-2.10;99.90
26224;DHT22;14820;48.682;8.890;2022-12-18T14:20:23;-2.10;99.90
26224;DHT22;14820;48.682;8.890;2022-12-18T14:22:49;-2.10;99.90
26224;DHT22;14820;48.682;8.890;2022-12-18T14:25:20;-2.10;99.90
26224;DHT22;14820;48.682;8.890;2022-12-18T14:30:39;-2.10;99.90
26224;DHT22;14820;48.682;8.890;2022-12-18T14:33:10;-2.10;99.90
26224;DHT22;14820;48.682;8.890;2022-12-18T14:35:39;-2.20;99.90
26224;DHT22;14820;48.682;8.890;2022-12-18T14:38:24;-2.20;99.90
26224;DHT22;14820;48.682;8.890;2022-12-18T14:40:54;-2.20;99.90
26224;DHT22;14820;48.682;8.890;2022-12-18T14:43:20;-2.20;99.90
26224;DHT22;14820;48.682;8.890;2022-12-18T14:45:46;-2.20;99.90
26224;DHT22;14820;48.682;8.890;2022-12-18T14:48:38;-2.30;99.90
26224;DHT22;14820;48.682;8.890;2022-12-18T14:51:20;-2.30;99.90
26224;DHT22;14820;48.682;8.890;2022-12-18T14:54:16;-2.40;99.90
26224;DHT22;14820;48.682;8.890;2022-12-18T14:56:47;-2.50;99.90
26224;DHT22;14820;48.682;8.890;2022-12-18T14:59:24;-2.50;99.90
26224;DHT22;14820;48.682;8.890;2022-12-18T15:02:18;-2.50;99.90
26224;DHT22;14820;48.682;8.890;2022-12-18T15:04:46;-2.60;99.90
26224;DHT22;14820;48.682;8.890;2022-12-18T15:09:39;-2.70;99.90
26224;DHT22;14820;48.682;8.890;2022-12-18T15:12:15;-2.80;99.90
26224;DHT22;14820;48.682;8.890;2022-12-18T15:14:45;-2.80;99.90
26224;DHT22;14820;48.682;8.890;2022-12-18T15:17:22;-2.90;99.90
26224;DHT22;14820;48.682;8.890;2022-12-18T15:19:52;-2.90;99.90
26224;DHT22;14820;48.682;8.890;2022-12-18T15:22:24;-3.00;99.90
26224;DHT22;14820;48.682;8.890;2022-12-18T15:24:54;-3.10;99.90
26224;DHT22;14820;48.682;8.890;2022-12-18T15:27:26;-3.10;99.90
26224;DHT22;14820;48.682;8.890;2022-12-18T15:30:20;-3.20;99.90
26224;DHT22;14820;48.682;8.890;2022-12-18T15:32:55;-3.20;99.90
26224;DHT22;14820;48.682;8.890;2022-12-18T15:35:38;-3.20;99.90
26224;DHT22;14820;48.682;8.890;2022-12-18T15:38:03;-3.40;99.90
26224;DHT22;14820;48.682;8.890;2022-12-18T15:40:29;-3.30;99.90
26224;DHT22;14820;48.682;8.890;2022-12-18T15:42:55;-3.50;99.90
26224;DHT22;14820;48.682;8.890;2022-12-18T15:45:40;-3.50;99.90
26224;DHT22;14820;48.682;8.890;2022-12-18T15:48:22;-3.50;99.90
26224;DHT22;14820;48.682;8.890;2022-12-18T15:50:52;-3.60;99.90
26224;DHT22;14820;48.682;8.890;2022-12-18T15:53:19;-3.70;99.90
26224;DHT22;14820;48.682;8.890;2022-12-18T15:55:44;-3.70;99.90
26224;DHT22;14820;48.682;8.890;2022-12-18T15:58:31;-3.80;99.90
26224;DHT22;14820;48.682;8.890;2022-12-18T16:00:59;-3.80;99.90
26224;DHT22;14820;48.682;8.890;2022-12-18T16:03:27;-3.80;99.90
26224;DHT22;14820;48.682;8.890;2022-12-18T16:05:53;-3.80;99.90
26224;DHT22;14820;48.682;8.890;2022-12-18T16:08:21;-3.90;99.90
26224;DHT22;14820;48.682;8.890;2022-12-18T16:10:46;-3.90;99.90
26224;DHT22;14820;48.682;8.890;2022-12-18T16:13:16;-4.00;99.90
26224;DHT22;14820;48.682;8.890;2022-12-18T16:15:44;-4.00;99.90
26224;DHT22;14820;48.682;8.890;2022-12-18T16:18:12;-4.00;99.90
26224;DHT22;14820;48.682;8.890;2022-12-18T16:20:38;-4.00;99.90
26224;DHT22;14820;48.682;8.890;2022-12-18T16:23:04;-3.90;99.90
26224;DHT22;14820;48.682;8.890;2022-12-18T16:25:30;-3.90;99.90
26224;DHT22;14820;48.682;8.890;2022-12-18T16:27:56;-3.90;99.90
26224;DHT22;14820;48.682;8.890;2022-12-18T16:30:27;-3.90;99.90
26224;DHT22;14820;48.682;8.890;2022-12-18T16:32:56;-3.90;99.90
26224;DHT22;14820;48.682;8.890;2022-12-18T16:35:23;-3.90;99.90
26224;DHT22;14820;48.682;8.890;2022-12-18T16:37:49;-3.90;99.90
26224;DHT22;14820;48.682;8.890;2022-12-18T16:40:16;-3.90;99.90
26224;DHT22;14820;48.682;8.890;2022-12-18T16:42:43;-4.00;99.90
26224;DHT22;14820;48.682;8.890;2022-12-18T16:45:16;-4.00;99.90
26224;DHT22;14820;48.682;8.890;2022-12-18T16:47:42;-3.90;99.90
26224;DHT22;14820;48.682;8.890;2022-12-18T16:50:09;-3.90;99.90
26224;DHT22;14820;48.682;8.890;2022-12-18T16:52:35;-3.90;99.90
26224;DHT22;14820;48.682;8.890;2022-12-18T16:55:01;-3.90;99.90
26224;DHT22;14820;48.682;8.890;2022-12-18T16:57:27;-3.90;99.90
26224;DHT22;14820;48.682;8.890;2022-12-18T16:59:53;-3.90;99.90
26224;DHT22;14820;48.682;8.890;2022-12-18T17:02:21;-3.90;99.90
26224;DHT22;14820;48.682;8.890;2022-12-18T17:04:48;-3.90;99.90
26224;DHT22;14820;48.682;8.890;2022-12-18T17:07:14;-3.90;99.90
26224;DHT22;14820;48.682;8.890;2022-12-18T17:09:40;-3.90;99.90
26224;DHT22;14820;48.682;8.890;2022-12-18T17:12:06;-3.80;99.90
26224;DHT22;14820;48.682;8.890;2022-12-18T17:14:33;-3.80;99.90
26224;DHT22;14820;48.682;8.890;2022-12-18T17:17:02;-3.70;99.90
26224;DHT22;14820;48.682;8.890;2022-12-18T17:19:27;-3.70;99.90